Time;durP1;ratioP1;P1;durP2;ratioP2;P2;SDS_P1;SDS_P2;PMS_P1;PMS_P2;Temp;Humidity;BMP_temperature;BMP_pressure;BME280_temperature;BME280_humidity;BME280_pressure;Samples;Min_cycle;Max_cycle;Signal;HPM_P1;HPM_P2
2021/12/09 00:01:27;;;;;;;9.50;3.22;;;6.80;92.00;;;;;;5032881;28;20499;-82
2021/12/09 00:03:57;;;;;;;9.50;3.03;;;6.70;92.00;;;;;;5033035;28;20022;-82
2021/12/09 00:06:27;;;;;;;8.48;3.05;;;6.80;92.10;;;;;;5033083;28;20033;-82
2021/12/09 00:08:59;;;;;;;8.05;3.00;;;6.80;92.00;;;;;;5032942;28;20026;-82
2021/12/09 00:11:25;;;;;;;9.43;3.25;;;6.80;92.10;;;;;;5033151;28;20054;-82
2021/12/09 00:13:51;;;;;;;13.60;3.20;;;6.80;92.00;;;;;;5035957;28;20101;-82
2021/12/09 00:16:17;;;;;;;10.25;3.10;;;6.80;92.10;;;;;;5036884;28;20037;-81
2021/12/09 00:18:43;;;;;;;10.27;3.55;;;6.70;92.10;;;;;;5036190;28;20410;-82
2021/12/09 00:21:10;;;;;;;6.65;3.22;;;6.80;92.10;;;;;;5036839;28;20025;-82
2021/12/09 00:23:35;;;;;;;10.18;3.03;;;6.80;92.10;;;;;;5036643;28;20389;-82
2021/12/09 00:26:01;;;;;;;8.88;3.45;;;6.80;92.10;;;;;;5047831;28;20021;-82
2021/12/09 00:28:27;;;;;;;10.57;3.55;;;6.70;92.30;;;;;;5059798;28;20025;-82
2021/12/09 00:30:52;;;;;;;8.18;3.28;;;6.80;92.10;;;;;;5055634;28;20034;-82
2021/12/09 00:33:18;;;;;;;9.40;3.28;;;6.70;92.10;;;;;;5039558;28;20029;-82
2021/12/09 00:35:49;;;;;;;10.35;3.10;;;6.70;92.10;;;;;;5036271;28;20032;-82
2021/12/09 00:38:32;;;;;;;8.57;3.00;;;6.70;92.10;;;;;;5035962;28;20472;-82
2021/12/09 00:40:58;;;;;;;11.18;2.90;;;6.70;92.10;;;;;;5036264;28;20101;-82
2021/12/09 00:43:24;;;;;;;9.25;2.85;;;6.70;92.10;;;;;;5036139;28;20477;-82
2021/12/09 00:45:50;;;;;;;7.40;2.95;;;6.80;92.10;;;;;;5036211;28;20376;-81
2021/12/09 00:48:16;;;;;;;11.40;3.13;;;6.80;92.10;;;;;;5035978;28;20030;-82
2021/12/09 00:50:41;;;;;;;9.55;2.85;;;6.80;92.10;;;;;;5036343;28;20037;-82
2021/12/09 00:53:07;;;;;;;7.15;3.30;;;6.80;92.10;;;;;;5036071;28;20108;-81
2021/12/09 00:55:33;;;;;;;6.95;3.03;;;6.80;92.00;;;;;;5035913;28;20381;-82
2021/12/09 00:57:59;;;;;;;9.45;3.40;;;6.80;92.00;;;;;;5035628;28;20128;-81
2021/12/09 01:00:24;;;;;;;11.27;3.10;;;6.70;92.00;;;;;;5035972;28;20036;-81
2021/12/09 01:02:50;;;;;;;7.47;2.72;;;6.70;92.00;;;;;;5035766;28;20021;-81
2021/12/09 01:05:16;;;;;;;9.18;3.10;;;6.70;91.90;;;;;;5035658;28;20101;-81
2021/12/09 01:07:42;;;;;;;10.50;3.17;;;6.70;92.00;;;;;;5035937;28;20056;-81
2021/12/09 01:10:11;;;;;;;10.07;2.45;;;6.70;91.90;;;;;;5035646;28;20053;-81
2021/12/09 01:12:37;;;;;;;9.48;2.90;;;6.70;92.00;;;;;;5035255;28;20026;-81
2021/12/09 01:15:05;;;;;;;9.77;3.15;;;6.60;92.00;;;;;;5035751;28;20022;-81
2021/12/09 01:17:31;;;;;;;7.13;2.92;;;6.60;92.00;;;;;;5035752;28;20049;-81
2021/12/09 01:19:56;;;;;;;8.73;3.17;;;6.60;92.00;;;;;;5035416;28;20084;-81
2021/12/09 01:22:29;;;;;;;9.95;3.13;;;6.60;92.10;;;;;;5035375;28;20034;-81
2021/12/09 01:24:55;;;;;;;6.45;3.30;;;6.60;92.10;;;;;;5035108;28;20468;-82
2021/12/09 01:27:21;;;;;;;10.65;3.80;;;6.50;92.00;;;;;;5048015;28;20029;-82
2021/12/09 01:29:53;;;;;;;7.75;3.35;;;6.50;92.10;;;;;;5059534;28;20077;-82
2021/12/09 01:32:25;;;;;;;8.63;3.58;;;6.30;92.30;;;;;;5039338;28;20056;-82
2021/12/09 01:34:50;;;;;;;8.45;3.53;;;6.20;92.60;;;;;;5035791;28;20030;-81
2021/12/09 01:37:16;;;;;;;7.90;3.90;;;6.20;92.70;;;;;;5035090;28;20527;-82
2021/12/09 01:39:43;;;;;;;8.85;3.10;;;6.20;92.70;;;;;;5035010;28;20088;-81
2021/12/09 01:42:09;;;;;;;8.45;3.40;;;6.30;92.70;;;;;;5034994;28;20029;-81
2021/12/09 01:44:34;;;;;;;7.50;3.25;;;6.30;92.60;;;;;;5034952;28;20103;-82
2021/12/09 01:47:00;;;;;;;9.20;3.45;;;6.30;92.60;;;;;;5034922;28;20053;-82
2021/12/09 01:49:26;;;;;;;8.30;3.08;;;6.30;92.60;;;;;;5034998;28;20029;-82
2021/12/09 01:51:52;;;;;;;12.80;3.92;;;6.30;92.60;;;;;;5034825;28;20417;-82
2021/12/09 01:54:18;;;;;;;17.17;4.38;;;6.30;92.60;;;;;;5034912;28;20036;-82
2021/12/09 01:56:44;;;;;;;10.50;4.05;;;6.30;92.50;;;;;;5034847;28;20041;-82
2021/12/09 01:59:10;;;;;;;12.35;4.10;;;6.40;92.50;;;;;;5034724;28;20070;-81
2021/12/09 02:01:37;;;;;;;10.90;3.85;;;6.30;92.50;;;;;;5034696;28;20026;-82
2021/12/09 02:04:06;;;;;;;9.23;3.92;;;6.30;92.50;;;;;;5034651;28;20029;-81
2021/12/09 02:06:31;;;;;;;10.80;3.50;;;6.30;92.50;;;;;;5034467;28;20053;-81
2021/12/09 02:08:57;;;;;;;11.45;3.60;;;6.30;92.50;;;;;;5034798;28;20045;-82
2021/12/09 02:11:24;;;;;;;8.82;3.50;;;6.40;92.60;;;;;;5034839;28;20025;-81
2021/12/09 02:13:54;;;;;;;6.93;3.17;;;6.40;92.50;;;;;;5035352;28;20018;-81
2021/12/09 02:16:20;;;;;;;12.05;3.95;;;6.40;92.50;;;;;;5034628;28;20025;-81
2021/12/09 02:18:46;;;;;;;9.02;3.53;;;6.40;92.50;;;;;;5034399;28;20029;-81
2021/12/09 02:21:16;;;;;;;8.40;3.60;;;6.40;92.50;;;;;;5034562;28;20029;-81
2021/12/09 02:24:00;;;;;;;10.65;3.55;;;6.30;92.50;;;;;;5034814;28;20032;-81
2021/12/09 02:26:29;;;;;;;5.93;2.88;;;6.40;92.60;;;;;;5057338;28;20048;-81
2021/12/09 02:28:56;;;;;;;7.13;3.35;;;6.40;92.60;;;;;;5054346;28;20114;-83
2021/12/09 02:31:24;;;;;;;9.55;3.53;;;6.40;92.60;;;;;;5034428;28;20029;-82
2021/12/09 02:33:50;;;;;;;7.05;3.03;;;6.30;92.60;;;;;;5034121;28;20033;-82
2021/12/09 02:36:16;;;;;;;12.80;3.85;;;6.20;92.70;;;;;;5033250;28;20100;-82
2021/12/09 02:38:44;;;;;;;7.82;3.45;;;6.20;92.70;;;;;;5033885;28;20466;-82
2021/12/09 02:41:17;;;;;;;8.48;3.17;;;6.20;92.70;;;;;;5033935;28;20025;-82
2021/12/09 02:43:44;;;;;;;;;;;6.20;92.70;;;;;;5034508;28;20030;-82
2021/12/09 02:46:10;;;;;;;5.95;2.65;;;6.20;92.60;;;;;;5033858;28;19928;-82
2021/12/09 02:48:36;;;;;;;9.70;3.30;;;6.20;92.60;;;;;;5033787;28;20465;-82
2021/12/09 02:51:04;;;;;;;8.40;3.75;;;6.20;92.60;;;;;;5033667;28;20022;-81
2021/12/09 02:53:30;;;;;;;6.53;2.95;;;6.20;92.60;;;;;;5033848;28;20033;-81
2021/12/09 02:55:55;;;;;;;8.40;3.60;;;6.20;92.60;;;;;;5033767;28;20143;-80
2021/12/09 02:58:21;;;;;;;10.18;3.33;;;6.20;92.60;;;;;;5033595;28;20139;-81
2021/12/09 03:00:51;;;;;;;10.52;3.47;;;6.20;92.60;;;;;;5033826;28;20041;-81
2021/12/09 03:03:17;;;;;;;9.88;3.10;;;6.20;92.60;;;;;;5034004;28;20021;-81
2021/12/09 03:05:44;;;;;;;11.25;3.78;;;6.20;92.60;;;;;;5033714;28;20362;-81
2021/12/09 03:08:11;;;;;;;10.63;3.30;;;6.20;92.60;;;;;;5033947;28;20107;-81
2021/12/09 03:10:36;;;;;;;7.82;3.00;;;6.20;92.60;;;;;;5033701;28;20036;-82
2021/12/09 03:13:05;;;;;;;9.77;3.00;;;6.20;92.50;;;;;;5033671;28;20022;-82
2021/12/09 03:15:34;;;;;;;12.32;3.47;;;6.10;92.60;;;;;;5033606;28;20108;-82
2021/12/09 03:17:59;;;;;;;11.02;3.70;;;6.10;92.70;;;;;;5033696;28;20037;-82
2021/12/09 03:20:27;;;;;;;12.60;4.47;;;6.00;92.70;;;;;;5033467;28;20397;-82
2021/12/09 03:22:52;;;;;;;10.02;4.10;;;5.80;92.80;;;;;;5033407;28;20033;-81
2021/12/09 03:25:20;;;;;;;9.85;3.80;;;5.80;92.90;;;;;;5052647;28;20009;-80
2021/12/09 03:27:47;;;;;;;9.80;3.65;;;5.80;92.90;;;;;;5054089;28;20083;-81
2021/12/09 03:30:19;;;;;;;7.68;3.08;;;5.80;92.90;;;;;;5033825;28;20034;-81
2021/12/09 03:32:45;;;;;;;10.90;3.78;;;5.80;92.80;;;;;;5033606;28;20392;-81
2021/12/09 03:35:12;;;;;;;8.27;4.20;;;5.90;92.80;;;;;;5033424;28;20555;-81
2021/12/09 03:37:40;;;;;;;9.27;3.50;;;5.90;92.80;;;;;;5033225;28;20030;-80
2021/12/09 03:40:07;;;;;;;10.05;3.55;;;5.90;92.70;;;;;;5033158;28;20037;-81
2021/12/09 03:42:34;;;;;;;9.20;3.20;;;6.00;92.60;;;;;;5032963;28;20045;-81
2021/12/09 03:45:00;;;;;;;9.70;3.70;;;6.00;92.60;;;;;;5033469;28;20033;-81
2021/12/09 03:47:28;;;;;;;7.38;3.55;;;6.00;92.60;;;;;;5034201;28;20047;-82
2021/12/09 03:49:55;;;;;;;11.45;3.75;;;6.00;92.50;;;;;;5037175;28;20030;-81
2021/12/09 03:52:21;;;;;;;14.65;3.67;;;6.00;92.50;;;;;;5037283;28;20040;-82
2021/12/09 03:54:46;;;;;;;12.80;3.50;;;6.00;92.60;;;;;;5037536;28;20029;-83
2021/12/09 03:57:13;;;;;;;12.23;3.47;;;6.00;92.60;;;;;;5036914;28;20114;-82
2021/12/09 03:59:41;;;;;;;10.55;3.38;;;6.00;92.50;;;;;;5037287;28;20049;-83
2021/12/09 04:02:07;;;;;;;8.65;3.30;;;6.00;92.50;;;;;;5036839;28;20026;-83
2021/12/09 04:04:33;;;;;;;11.52;3.60;;;6.00;92.40;;;;;;5037103;28;20025;-82
2021/12/09 04:06:59;;;;;;;7.75;3.60;;;6.00;92.40;;;;;;5036849;28;20080;-82
2021/12/09 04:09:25;;;;;;;11.13;3.45;;;6.00;92.40;;;;;;5036899;28;20079;-82
2021/12/09 04:11:52;;;;;;;7.70;3.28;;;6.00;92.40;;;;;;5036852;28;20026;-82
2021/12/09 04:14:19;;;;;;;10.60;3.33;;;6.00;92.50;;;;;;5037024;28;20030;-82
2021/12/09 04:16:45;;;;;;;9.65;3.35;;;6.00;92.50;;;;;;5037050;28;20033;-82
2021/12/09 04:19:12;;;;;;;9.65;3.90;;;6.00;92.40;;;;;;5036776;28;20477;-82
2021/12/09 04:21:40;;;;;;;10.85;4.10;;;6.00;92.40;;;;;;5037589;28;20383;-82
2021/12/09 04:24:08;;;;;;;11.40;3.53;;;6.00;92.40;;;;;;5053435;28;20051;-82
2021/12/09 04:26:39;;;;;;;10.02;3.58;;;6.00;92.40;;;;;;5058664;28;20033;-82
2021/12/09 04:29:06;;;;;;;10.10;3.67;;;5.90;92.40;;;;;;5036804;28;20037;-82
2021/12/09 04:31:32;;;;;;;8.70;3.05;;;6.00;92.50;;;;;;5036805;28;20025;-82
2021/12/09 04:33:58;;;;;;;12.60;3.92;;;6.00;92.50;;;;;;5036406;28;20084;-81
2021/12/09 04:36:25;;;;;;;10.25;4.00;;;6.00;92.50;;;;;;5036334;28;20029;-83
2021/12/09 04:38:52;;;;;;;10.40;3.80;;;6.00;92.50;;;;;;5035826;28;20035;-82
2021/12/09 04:41:18;;;;;;;9.13;3.92;;;6.00;92.40;;;;;;5036245;28;20435;-82
2021/12/09 04:43:44;;;;;;;11.55;3.35;;;6.00;92.40;;;;;;5036217;28;20100;-82
2021/12/09 04:46:11;;;;;;;8.30;3.17;;;6.00;92.40;;;;;;5036163;28;20030;-81
2021/12/09 04:48:37;;;;;;;10.98;3.58;;;6.00;92.40;;;;;;5036164;28;20104;-82
2021/12/09 04:51:03;;;;;;;9.55;3.28;;;5.90;92.40;;;;;;5036012;28;20033;-81
2021/12/09 04:53:29;;;;;;;10.52;3.60;;;5.90;92.40;;;;;;5036117;28;20038;-82
2021/12/09 04:55:55;;;;;;;10.32;3.60;;;6.00;92.40;;;;;;5036178;28;20086;-81
2021/12/09 04:58:23;;;;;;;12.25;3.40;;;5.90;92.40;;;;;;5035168;28;20485;-82
2021/12/09 05:00:49;;;;;;;9.35;3.25;;;5.90;92.40;;;;;;5035171;28;20037;-81
2021/12/09 05:03:15;;;;;;;11.05;3.55;;;5.90;92.40;;;;;;5035888;28;20465;-81
2021/12/09 05:05:45;;;;;;;12.57;3.40;;;5.90;92.40;;;;;;5035796;28;20129;-81
2021/12/09 05:08:14;;;;;;;8.25;3.15;;;5.90;92.40;;;;;;5035985;28;20032;-81
2021/12/09 05:10:55;;;;;;;11.32;3.13;;;5.80;92.40;;;;;;5035882;28;20052;-81
2021/12/09 05:13:23;;;;;;;10.23;3.30;;;5.80;92.40;;;;;;5035831;28;20032;-81
2021/12/09 05:15:49;;;;;;;8.25;3.08;;;5.80;92.40;;;;;;5035867;28;20025;-81
2021/12/09 05:18:16;;;;;;;9.05;4.00;;;5.90;92.40;;;;;;5036026;28;20022;-81
2021/12/09 05:20:43;;;;;;;7.95;3.38;;;5.90;92.40;;;;;;5036222;28;20049;-81
2021/12/09 05:23:09;;;;;;;12.18;3.70;;;5.90;92.40;;;;;;5050975;28;20473;-81
2021/12/09 05:25:35;;;;;;;9.82;3.35;;;5.80;92.40;;;;;;5056432;28;20049;-81
2021/12/09 05:28:01;;;;;;;7.63;3.20;;;5.90;92.40;;;;;;5035588;28;20497;-81
2021/12/09 05:30:39;;;;;;;10.77;3.42;;;5.80;92.40;;;;;;5035604;28;20057;-82
2021/12/09 05:33:06;;;;;;;12.60;3.78;;;5.80;92.50;;;;;;5035295;28;20095;-82
2021/12/09 05:35:33;;;;;;;14.15;3.70;;;5.70;92.50;;;;;;5035695;28;20029;-81
2021/12/09 05:37:59;;;;;;;8.27;3.10;;;5.70;92.50;;;;;;5035157;28;20037;-82
2021/12/09 05:40:24;;;;;;;8.00;3.10;;;5.60;92.60;;;;;;5034994;28;20525;-81
2021/12/09 05:42:50;;;;;;;9.20;2.90;;;5.60;92.70;;;;;;5035160;28;20030;-82
2021/12/09 05:45:16;;;;;;;7.30;3.25;;;5.60;92.60;;;;;;5034890;28;20047;-81
2021/12/09 05:47:41;;;;;;;8.10;3.10;;;5.60;92.70;;;;;;5035282;28;20025;-82
2021/12/09 05:50:08;;;;;;;12.00;3.53;;;5.60;92.70;;;;;;5035167;28;20043;-82
2021/12/09 05:52:34;;;;;;;10.63;3.03;;;5.50;92.70;;;;;;5035083;28;20105;-82
2021/12/09 05:55:00;;;;;;;11.30;3.40;;;5.60;92.70;;;;;;5034485;28;20513;-82
2021/12/09 05:57:25;;;;;;;9.60;2.97;;;5.60;92.70;;;;;;5034524;28;20076;-82
2021/12/09 05:59:54;;;;;;;9.55;3.30;;;5.60;92.70;;;;;;5034773;28;20038;-81
2021/12/09 06:02:20;;;;;;;11.98;3.15;;;5.60;92.60;;;;;;5035053;28;20021;-82
2021/12/09 06:04:46;;;;;;;11.70;3.13;;;5.60;92.70;;;;;;5034750;28;20040;-82
2021/12/09 06:07:14;;;;;;;7.97;3.05;;;5.60;92.70;;;;;;5034957;28;20026;-82
2021/12/09 06:09:40;;;;;;;9.18;3.58;;;5.60;92.70;;;;;;5034865;28;20500;-82
2021/12/09 06:12:07;;;;;;;8.10;3.00;;;5.60;92.60;;;;;;5034697;28;20033;-82
2021/12/09 06:14:33;;;;;;;9.45;3.80;;;5.70;92.60;;;;;;5034790;28;20029;-82
2021/12/09 06:16:59;;;;;;;12.90;3.65;;;5.70;92.60;;;;;;5034814;28;20416;-81
2021/12/09 06:19:25;;;;;;;10.15;4.38;;;5.70;92.60;;;;;;5046778;28;20034;-82
2021/12/09 06:21:51;;;;;;;12.90;4.68;;;5.70;92.60;;;;;;5056739;28;20040;-82
2021/12/09 06:24:18;;;;;;;10.45;4.20;;;5.70;92.50;;;;;;5052131;28;20093;-82
2021/12/09 06:26:44;;;;;;;12.20;4.80;;;5.70;92.80;;;;;;5035344;28;20213;-82
2021/12/09 06:29:09;;;;;;;8.70;3.58;;;5.70;92.50;;;;;;5034528;28;20029;-81
2021/12/09 06:31:35;;;;;;;11.43;3.65;;;5.70;92.50;;;;;;5034277;28;20102;-81
2021/12/09 06:34:01;;;;;;;13.60;4.20;;;5.70;92.50;;;;;;5034182;28;20082;-81
2021/12/09 06:36:27;;;;;;;10.30;4.00;;;5.60;92.60;;;;;;5034257;28;20056;-81
2021/12/09 06:38:52;;;;;;;11.98;3.30;;;5.60;92.60;;;;;;5034231;28;20030;-81
2021/12/09 06:41:18;;;;;;;7.55;3.80;;;5.60;92.60;;;;;;5034055;28;20116;-81
2021/12/09 06:43:44;;;;;;;10.73;3.38;;;5.70;92.60;;;;;;5034116;28;20025;-82
2021/12/09 06:46:11;;;;;;;9.77;3.72;;;5.60;92.60;;;;;;5033533;28;20040;-81
2021/12/09 06:48:39;;;;;;;10.20;3.17;;;5.70;92.60;;;;;;5034161;28;20036;-82
2021/12/09 06:51:08;;;;;;;7.88;2.90;;;5.60;92.60;;;;;;5033771;28;20029;-81
2021/12/09 06:53:34;;;;;;;8.00;2.65;;;5.70;92.60;;;;;;5033945;28;20033;-82
2021/12/09 06:56:01;;;;;;;6.93;2.08;;;5.70;92.60;;;;;;5034315;28;20025;-82
2021/12/09 06:58:27;;;;;;;7.47;2.53;;;5.70;92.60;;;;;;5033470;28;20456;-82
2021/12/09 07:00:54;;;;;;;8.63;2.53;;;5.60;92.60;;;;;;5033651;28;20029;-83
2021/12/09 07:03:21;;;;;;;8.50;2.88;;;5.70;92.60;;;;;;5033571;28;20440;-82
2021/12/09 07:05:48;;;;;;;6.03;2.30;;;5.60;92.60;;;;;;5033724;28;20195;-82
2021/12/09 07:08:14;;;;;;;6.82;2.20;;;5.60;92.60;;;;;;5034068;28;20416;-81
2021/12/09 07:10:41;;;;;;;9.95;2.95;;;5.60;92.70;;;;;;5033778;28;20037;-82
2021/12/09 07:13:07;;;;;;;8.98;2.95;;;5.60;92.70;;;;;;5034164;28;20036;-80
2021/12/09 07:15:33;;;;;;;9.55;3.33;;;5.60;92.70;;;;;;5033985;28;20030;-81
2021/12/09 07:17:59;;;;;;;12.57;3.50;;;5.60;92.70;;;;;;5034089;28;20048;-82
2021/12/09 07:20:30;;;;;;;11.27;2.70;;;5.50;92.70;;;;;;5039671;28;20038;-79
2021/12/09 07:22:56;;;;;;;9.82;2.63;;;5.40;92.90;;;;;;5041810;28;20026;-82
2021/12/09 07:25:24;;;;;;;9.07;2.05;;;5.40;93.10;;;;;;5042031;28;20025;-74
2021/12/09 07:27:50;;;;;;;11.05;2.38;;;5.40;93.40;;;;;;5052031;28;20472;-73
2021/12/09 07:30:17;;;;;;;8.10;2.83;;;5.50;93.80;;;;;;5051219;28;20041;-73
2021/12/09 07:32:44;;;;;;;8.68;2.70;;;5.60;93.90;;;;;;5046696;28;20029;-76
2021/12/09 07:35:11;;;;;;;10.30;2.08;;;5.80;94.00;;;;;;5043383;28;20719;-76
2021/12/09 07:37:38;;;;;;;8.35;2.33;;;5.80;93.90;;;;;;5033366;28;20037;-77
2021/12/09 07:40:07;;;;;;;8.00;2.20;;;5.90;94.00;;;;;;5038112;28;20046;-76
2021/12/09 07:42:33;;;;;;;8.15;2.33;;;6.00;93.90;;;;;;5046408;28;20426;-77
2021/12/09 07:44:59;;;;;;;9.23;2.17;;;6.00;93.60;;;;;;5047780;28;20105;-78
2021/12/09 07:47:25;;;;;;;10.60;2.47;;;6.00;93.50;;;;;;5051423;28;20162;-74
2021/12/09 07:49:50;;;;;;;11.32;2.65;;;6.10;93.40;;;;;;5041904;28;20041;-75
2021/12/09 07:52:16;;;;;;;10.48;2.72;;;6.10;93.40;;;;;;5048129;28;20108;-76
2021/12/09 07:54:42;;;;;;;6.43;2.38;;;6.20;93.50;;;;;;5038748;28;20032;-77
2021/12/09 07:57:07;;;;;;;7.80;2.72;;;6.20;93.40;;;;;;5032777;28;20452;-77
2021/12/09 07:59:34;;;;;;;7.78;2.53;;;6.30;93.30;;;;;;5032710;28;20079;-77
2021/12/09 08:02:00;;;;;;;10.43;2.58;;;6.30;93.10;;;;;;5034847;28;20087;-76
2021/12/09 08:04:25;;;;;;;10.02;2.20;;;6.30;92.90;;;;;;5040313;28;20052;-77
2021/12/09 08:06:51;;;;;;;6.95;2.40;;;6.30;92.90;;;;;;5051609;28;20469;-75
2021/12/09 08:09:17;;;;;;;7.00;2.47;;;6.30;92.90;;;;;;5046564;28;20035;-77
2021/12/09 08:11:44;;;;;;;10.35;3.00;;;6.30;92.90;;;;;;5051427;28;20052;-77
2021/12/09 08:14:11;;;;;;;13.75;2.97;;;6.30;92.80;;;;;;5051255;28;20033;-77
2021/12/09 08:16:39;;;;;;;6.93;2.53;;;6.30;92.70;;;;;;5049434;28;20053;-79
2021/12/09 08:19:09;;;;;;;8.38;3.00;;;6.30;92.70;;;;;;5042810;28;20025;-86
2021/12/09 08:21:37;;;;;;;12.52;2.83;;;6.20;92.40;;;;;;5066752;28;20037;-86
2021/12/09 08:24:04;;;;;;;10.32;3.00;;;6.20;92.50;;;;;;5065650;28;20412;-88
2021/12/09 08:26:30;;;;;;;9.85;2.95;;;6.10;92.60;;;;;;5052827;28;20040;-81
2021/12/09 08:28:55;;;;;;;10.70;2.70;;;6.10;92.60;;;;;;5040690;28;20029;-82
2021/12/09 08:31:21;;;;;;;8.10;2.65;;;6.10;92.70;;;;;;5041581;28;20029;-79
2021/12/09 08:33:47;;;;;;;7.53;2.00;;;6.10;92.70;;;;;;5046398;28;20061;-79
2021/12/09 08:36:13;;;;;;;8.77;2.90;;;6.20;92.60;;;;;;5053501;28;20432;-78
2021/12/09 08:38:38;;;;;;;7.75;2.40;;;6.10;92.60;;;;;;5043526;28;20083;-78
2021/12/09 08:41:04;;;;;;;13.55;2.80;;;6.20;92.70;;;;;;5040106;28;20033;-78
2021/12/09 08:43:30;;;;;;;9.52;2.85;;;6.20;92.80;;;;;;5038788;28;20025;-78
2021/12/09 08:45:56;;;;;;;12.05;3.15;;;6.20;92.80;;;;;;5056528;28;20033;-77
2021/12/09 08:48:23;;;;;;;11.57;2.63;;;6.20;92.90;;;;;;5055780;28;20432;-77
2021/12/09 08:50:50;;;;;;;9.95;2.72;;;6.10;92.90;;;;;;5055876;28;20053;-78
2021/12/09 08:53:19;;;;;;;15.65;3.17;;;6.10;92.90;;;;;;5039570;28;20033;-79
2021/12/09 08:55:45;;;;;;;8.23;2.63;;;6.10;93.30;;;;;;5053352;28;20029;-79
2021/12/09 08:58:12;;;;;;;8.57;2.78;;;6.10;93.10;;;;;;5053721;28;20060;-81
2021/12/09 09:00:38;;;;;;;10.82;2.35;;;6.10;93.10;;;;;;5049109;28;20119;-77
2021/12/09 09:03:05;;;;;;;10.63;2.60;;;6.10;93.00;;;;;;5054401;28;20025;-80
2021/12/09 09:05:32;;;;;;;6.72;2.60;;;6.00;93.20;;;;;;5053618;28;20115;-80
2021/12/09 09:07:59;;;;;;;8.05;3.08;;;6.00;93.20;;;;;;5053852;28;20033;-79
2021/12/09 09:10:27;;;;;;;9.15;2.42;;;5.90;93.40;;;;;;5048969;28;20472;-79
2021/12/09 09:12:53;;;;;;;6.47;2.53;;;5.90;93.60;;;;;;5054002;28;20465;-79
2021/12/09 09:15:21;;;;;;;11.57;2.88;;;5.90;93.60;;;;;;5054674;28;20032;-79
2021/12/09 09:17:48;;;;;;;9.77;2.80;;;5.80;93.70;;;;;;5064668;28;20025;-80
2021/12/09 09:20:16;;;;;;;12.23;3.03;;;5.90;93.80;;;;;;5070022;28;20391;-81
2021/12/09 09:22:42;;;;;;;11.10;2.90;;;5.90;93.90;;;;;;5056763;28;20036;-80
2021/12/09 09:25:17;;;;;;;12.88;2.75;;;5.90;93.70;;;;;;5053890;28;20047;-78
2021/12/09 09:27:45;;;;;;;8.75;3.50;;;5.90;93.80;;;;;;5052747;28;20053;-79
2021/12/09 09:30:14;;;;;;;10.52;2.88;;;5.80;93.90;;;;;;5044335;28;20094;-78
2021/12/09 09:32:41;;;;;;;8.88;2.90;;;5.80;94.00;;;;;;5048141;28;20025;-78
2021/12/09 09:35:08;;;;;;;9.38;3.05;;;5.70;94.10;;;;;;5043650;28;20453;-78
2021/12/09 09:37:34;;;;;;;13.80;3.67;;;5.80;94.20;;;;;;5044710;28;20030;-79
2021/12/09 09:40:00;;;;;;;13.15;3.30;;;5.80;94.30;;;;;;5037464;28;20120;-80
2021/12/09 09:45:10;;;;;;;13.38;3.63;;;5.80;94.40;;;;;;5053007;28;20028;-80
2021/12/09 09:47:36;;;;;;;11.80;3.78;;;5.80;94.30;;;;;;5053403;28;20050;-79
2021/12/09 09:50:04;;;;;;;12.85;4.00;;;5.80;94.40;;;;;;5053599;28;20052;-78
2021/12/09 09:52:30;;;;;;;14.40;3.50;;;5.70;94.50;;;;;;5052472;28;20024;-76
2021/12/09 09:54:56;;;;;;;12.65;3.75;;;5.70;94.70;;;;;;5048421;28;20028;-73
2021/12/09 09:57:23;;;;;;;9.57;3.20;;;5.70;94.80;;;;;;5050616;28;20056;-75
2021/12/09 09:59:49;;;;;;;13.90;3.53;;;5.70;94.90;;;;;;5049268;28;20042;-76
2021/12/09 10:02:16;;;;;;;12.50;3.40;;;5.60;95.00;;;;;;5034436;28;20032;-76
2021/12/09 10:07:09;;;;;;;16.67;4.00;;;5.70;95.20;;;;;;5034457;28;20025;-75
2021/12/09 10:09:35;;;;;;;17.25;3.80;;;5.70;95.30;;;;;;5034452;28;20030;-76
2021/12/09 10:12:02;;;;;;;11.70;2.83;;;5.70;95.40;;;;;;5034405;28;20060;-76
2021/12/09 10:14:34;;;;;;;11.82;3.60;;;5.60;95.20;;;;;;5036043;28;20040;-76
2021/12/09 10:17:10;;;;;;;10.73;3.80;;;5.70;95.40;;;;;;5037443;28;20048;-76
2021/12/09 10:19:40;;;;;;;10.23;3.92;;;5.70;95.50;;;;;;5034078;28;20159;-75
2021/12/09 10:22:16;;;;;;;8.68;3.45;;;5.80;95.50;;;;;;5033816;28;20477;-76
2021/12/09 10:24:42;;;;;;;11.38;3.55;;;5.80;95.40;;;;;;5039750;28;20025;-75
2021/12/09 10:27:18;;;;;;;11.95;3.72;;;5.90;95.30;;;;;;5040055;28;20034;-76
2021/12/09 10:29:46;;;;;;;15.05;3.72;;;5.90;95.30;;;;;;5034263;28;20027;-75
2021/12/09 10:32:20;;;;;;;9.00;3.65;;;5.90;95.10;;;;;;5034083;28;20097;-76
2021/12/09 10:34:48;;;;;;;11.07;3.90;;;5.90;94.90;;;;;;5034195;28;20030;-76
2021/12/09 10:37:20;;;;;;;13.40;4.38;;;5.90;94.90;;;;;;5033568;28;20025;-77
2021/12/09 10:39:50;;;;;;;8.40;3.08;;;5.90;95.00;;;;;;5033420;28;20447;-76
2021/12/09 10:42:28;;;;;;;10.68;3.75;;;5.90;95.00;;;;;;5033599;28;20036;-75
2021/12/09 10:45:07;;;;;;;10.07;3.47;;;5.90;95.10;;;;;;5033698;28;20026;-76
2021/12/09 10:50:17;;;;;;;16.08;4.20;;;5.90;95.00;;;;;;5033354;28;20025;-76
2021/12/09 10:52:51;;;;;;;13.38;4.93;;;5.80;95.10;;;;;;5018630;28;20049;-77
2021/12/09 10:55:27;;;;;;;13.15;4.88;;;5.80;95.30;;;;;;5046199;28;20040;-76
2021/12/09 10:58:14;;;;;;;17.05;4.53;;;5.80;95.30;;;;;;5045735;28;20045;-76
2021/12/09 11:00:43;;;;;;;12.82;4.70;;;5.80;95.40;;;;;;5051100;28;20492;-78
2021/12/09 11:03:20;;;;;;;15.60;4.72;;;5.80;95.60;;;;;;5051751;28;20025;-76
2021/12/09 11:05:58;;;;;;;13.23;4.72;;;5.80;95.70;;;;;;5052043;28;20100;-77
2021/12/09 11:08:33;;;;;;;12.70;4.63;;;5.80;95.70;;;;;;5037408;28;20094;-78
2021/12/09 11:11:31;;;;;;;15.00;4.85;;;5.80;95.80;;;;;;5042326;28;20031;-78
2021/12/09 11:13:59;;;;;;;10.63;4.80;;;5.80;96.00;;;;;;5060925;28;20035;-75
2021/12/09 11:16:32;;;;;;;12.18;5.03;;;5.80;95.80;;;;;;5047287;28;20042;-77
2021/12/09 11:19:06;;;;;;;15.52;5.55;;;5.80;95.90;;;;;;5051109;28;20037;-78
2021/12/09 11:21:37;;;;;;;14.88;5.65;;;5.90;95.90;;;;;;5049852;28;20108;-79
2021/12/09 11:24:07;;;;;;;11.15;5.20;;;5.90;95.90;;;;;;5051088;28;20029;-80
2021/12/09 11:26:52;;;;;;;14.38;6.60;;;5.90;95.90;;;;;;5045938;28;20028;-79
2021/12/09 11:29:31;;;;;;;13.93;7.30;;;5.90;96.00;;;;;;5040868;28;20126;-79
2021/12/09 11:32:20;;;;;;;18.10;6.35;;;5.90;96.00;;;;;;5045549;28;20036;-79
2021/12/09 11:35:01;;;;;;;13.93;6.97;;;5.90;96.00;;;;;;5050542;28;20052;-80
2021/12/09 11:40:14;;;;;;;18.02;6.05;;;6.00;96.00;;;;;;5051349;28;20585;-79
2021/12/09 11:42:54;;;;;;;15.43;7.10;;;6.00;96.00;;;;;;5049505;28;20021;-79
2021/12/09 11:45:25;;;;;;;15.68;6.18;;;6.00;96.10;;;;;;5049684;28;20059;-78
2021/12/09 11:47:52;;;;;;;18.48;6.05;;;6.00;96.10;;;;;;5045886;28;20074;-78
2021/12/09 11:50:24;;;;;;;18.52;7.30;;;6.00;96.10;;;;;;5048269;28;20135;-79
2021/12/09 11:53:10;;;;;;;11.93;5.97;;;6.00;96.20;;;;;;5049307;28;20029;-79
2021/12/09 11:55:48;;;;;;;16.02;6.35;;;6.10;96.20;;;;;;5050718;28;20059;-79
2021/12/09 11:58:29;;;;;;;16.63;6.13;;;6.10;96.20;;;;;;5058166;28;20408;-80
2021/12/09 12:27:12;;;;;;;9.98;6.43;;;6.30;96.40;;;;;;5020400;28;20046;-77
2021/12/09 12:30:01;;;;;;;13.85;6.60;;;6.30;96.40;;;;;;5016728;28;20391;-81
2021/12/09 12:40:38;;;;;;;13.10;6.38;;;6.30;96.20;;;;;;5049186;28;20400;-80
2021/12/09 12:43:09;;;;;;;;;;;6.30;96.30;;;;;;5051295;28;20023;-79
2021/12/09 12:46:09;;;;;;;12.23;6.18;;;6.30;96.30;;;;;;5054398;28;19908;-80
2021/12/09 12:51:24;;;;;;;8.63;5.20;;;6.30;96.30;;;;;;5054738;28;20025;-77
2021/12/09 12:53:58;;;;;;;15.98;6.60;;;6.40;96.30;;;;;;5054195;28;20029;-76
2021/12/09 12:56:26;;;;;;;11.15;5.82;;;6.40;96.20;;;;;;5051712;28;20029;-76
2021/12/09 12:59:08;;;;;;;10.40;5.88;;;6.40;96.00;;;;;;5052603;28;20182;-76
2021/12/09 13:01:37;;;;;;;9.88;5.90;;;6.40;96.00;;;;;;5039070;28;20056;-78
2021/12/09 13:07:21;;;;;;;14.40;5.88;;;6.30;96.00;;;;;;5035836;28;20025;-77
2021/12/09 13:10:08;;;;;;;12.05;6.20;;;6.40;96.10;;;;;;5036326;28;20033;-79
2021/12/09 13:12:45;;;;;;;10.98;6.43;;;6.40;96.00;;;;;;5035153;28;20037;-76
2021/12/09 13:15:32;;;;;;;11.88;6.35;;;6.40;96.10;;;;;;5035376;28;20086;-78
2021/12/09 13:18:03;;;;;;;12.00;6.20;;;6.50;96.10;;;;;;5035542;28;20029;-77
2021/12/09 13:20:37;;;;;;;9.93;6.28;;;6.50;96.00;;;;;;5034191;28;20041;-76
2021/12/09 13:23:20;;;;;;;10.32;6.35;;;6.50;96.00;;;;;;5035090;28;20422;-75
2021/12/09 13:26:26;;;;;;;13.15;6.80;;;6.40;96.00;;;;;;5035010;28;20033;-75
2021/12/09 13:29:10;;;;;;;13.00;6.63;;;6.40;96.10;;;;;;5034946;28;20037;-75
2021/12/09 13:31:57;;;;;;;11.57;6.28;;;6.40;96.20;;;;;;5034965;28;20080;-75
2021/12/09 13:34:27;;;;;;;10.85;6.50;;;6.40;96.20;;;;;;5034930;28;20034;-77
2021/12/09 13:40:20;;;;;;;15.57;6.68;;;6.40;96.40;;;;;;5035222;28;20037;-75
2021/12/09 13:48:22;;;;;;;12.52;7.10;;;6.40;96.60;;;;;;5034715;28;20032;-76
2021/12/09 13:51:19;;;;;;;12.07;6.25;;;6.40;96.50;;;;;;5037324;28;20075;-76
2021/12/09 13:56:18;;;;;;;13.50;7.35;;;6.40;96.60;;;;;;5034063;28;20125;-76
2021/12/09 13:58:48;;;;;;;14.35;7.35;;;6.50;96.60;;;;;;5034333;28;20132;-77
2021/12/09 14:01:14;;;;;;;12.55;6.40;;;6.50;96.60;;;;;;5034750;28;20113;-77
2021/12/09 14:03:40;;;;;;;13.25;7.57;;;6.50;96.60;;;;;;5034798;28;20022;-77